sensor_id;sensor_type;location;lat;lon;timestamp;pressure;altitude;pressure_sealevel;temperature;humidity
9225;BME280;4647;48.072;11.616;2023-05-09T00:01:09;95617.56;;;9.10;79.49
9225;BME280;4647;48.072;11.616;2023-05-09T00:03:41;95607.53;;;9.07;79.09
9225;BME280;4647;48.072;11.616;2023-05-09T00:06:10;95616.78;;;9.13;78.81
9225;BME280;4647;48.072;11.616;2023-05-09T00:08:39;95614.50;;;9.04;79.27
9225;BME280;4647;48.072;11.616;2023-05-09T00:11:07;95581.38;;;8.82;78.91
9225;BME280;4647;48.072;11.616;2023-05-09T00:13:36;95608.75;;;8.91;79.97
9225;BME280;4647;48.072;11.616;2023-05-09T00:16:07;95603.72;;;8.93;79.68
9225;BME280;4647;48.072;11.616;2023-05-09T00:18:35;95603.72;;;8.90;79.71
9225;BME280;4647;48.072;11.616;2023-05-09T00:21:09;95608.00;;;8.84;80.15
9225;BME280;4647;48.072;11.616;2023-05-09T00:23:37;95603.75;;;8.86;80.04
9225;BME280;4647;48.072;11.616;2023-05-09T00:26:06;95578.72;;;8.57;80.54
9225;BME280;4647;48.072;11.616;2023-05-09T00:28:34;95588.00;;;8.46;81.03
9225;BME280;4647;48.072;11.616;2023-05-09T00:31:03;95596.09;;;8.49;81.46
9225;BME280;4647;48.072;11.616;2023-05-09T00:33:31;95596.88;;;8.53;81.32
9225;BME280;4647;48.072;11.616;2023-05-09T00:36:01;95584.53;;;8.42;81.44
9225;BME280;4647;48.072;11.616;2023-05-09T00:38:32;95592.25;;;8.40;81.85
9225;BME280;4647;48.072;11.616;2023-05-09T00:41:00;95590.72;;;8.39;82.10
9225;BME280;4647;48.072;11.616;2023-05-09T00:43:29;95585.72;;;8.34;82.21
9225;BME280;4647;48.072;11.616;2023-05-09T00:45:57;95579.13;;;8.31;82.09
9225;BME280;4647;48.072;11.616;2023-05-09T00:48:26;95581.44;;;8.29;82.33
9225;BME280;4647;48.072;11.616;2023-05-09T00:50:54;95572.19;;;8.19;82.50
9225;BME280;4647;48.072;11.616;2023-05-09T00:53:24;95583.72;;;8.27;82.29
9225;BME280;4647;48.072;11.616;2023-05-09T00:55:55;95588.38;;;8.23;82.56
9225;BME280;4647;48.072;11.616;2023-05-09T00:58:24;95578.72;;;8.18;82.25
9225;BME280;4647;48.072;11.616;2023-05-09T01:00:53;95566.78;;;8.16;82.04
9225;BME280;4647;48.072;11.616;2023-05-09T01:03:22;95579.88;;;8.21;82.44
9225;BME280;4647;48.072;11.616;2023-05-09T01:05:54;95580.28;;;8.16;82.75
9225;BME280;4647;48.072;11.616;2023-05-09T01:08:33;95568.72;;;7.94;82.88
9225;BME280;4647;48.072;11.616;2023-05-09T01:11:10;95558.31;;;7.85;83.29
9225;BME280;4647;48.072;11.616;2023-05-09T01:13:48;95574.88;;;7.94;83.39
9225;BME280;4647;48.072;11.616;2023-05-09T01:16:25;95570.63;;;7.97;83.37
9225;BME280;4647;48.072;11.616;2023-05-09T01:19:01;95569.09;;;7.85;83.56
9225;BME280;4647;48.072;11.616;2023-05-09T01:21:37;95561.38;;;7.80;83.79
9225;BME280;4647;48.072;11.616;2023-05-09T01:24:23;95570.66;;;7.86;83.51
9225;BME280;4647;48.072;11.616;2023-05-09T01:27:09;95561.78;;;7.86;83.67
9225;BME280;4647;48.072;11.616;2023-05-09T01:29:47;95564.09;;;7.87;83.48
9225;BME280;4647;48.072;11.616;2023-05-09T01:32:18;95559.47;;;7.91;83.68
9225;BME280;4647;48.072;11.616;2023-05-09T01:34:51;95558.69;;;7.87;83.55
9225;BME280;4647;48.072;11.616;2023-05-09T01:37:24;95545.19;;;7.73;83.41
9225;BME280;4647;48.072;11.616;2023-05-09T01:39:57;95552.13;;;7.63;83.88
9225;BME280;4647;48.072;11.616;2023-05-09T01:42:34;95558.69;;;7.62;83.97
9225;BME280;4647;48.072;11.616;2023-05-09T01:45:07;95554.06;;;7.63;83.80
9225;BME280;4647;48.072;11.616;2023-05-09T01:47:37;95554.41;;;7.54;83.86
9225;BME280;4647;48.072;11.616;2023-05-09T01:50:08;95558.66;;;7.55;83.77
9225;BME280;4647;48.072;11.616;2023-05-09T01:52:39;95550.94;;;7.43;84.31
9225;BME280;4647;48.072;11.616;2023-05-09T01:55:09;95556.72;;;7.38;84.58
9225;BME280;4647;48.072;11.616;2023-05-09T01:57:39;95550.53;;;7.37;84.34
9225;BME280;4647;48.072;11.616;2023-05-09T02:00:14;95530.88;;;7.26;84.49
9225;BME280;4647;48.072;11.616;2023-05-09T02:02:44;95544.38;;;7.37;84.33
9225;BME280;4647;48.072;11.616;2023-05-09T02:05:13;95546.28;;;7.33;84.29
9225;BME280;4647;48.072;11.616;2023-05-09T02:07:44;95530.53;;;7.38;84.13
9225;BME280;4647;48.072;11.616;2023-05-09T02:10:15;95538.59;;;7.35;84.41
9225;BME280;4647;48.072;11.616;2023-05-09T02:12:45;95538.19;;;7.33;84.24
9225;BME280;4647;48.072;11.616;2023-05-09T02:15:16;95533.56;;;7.23;84.80
9225;BME280;4647;48.072;11.616;2023-05-09T02:17:44;95532.78;;;7.15;85.29
9225;BME280;4647;48.072;11.616;2023-05-09T02:20:13;95540.88;;;7.33;84.77
9225;BME280;4647;48.072;11.616;2023-05-09T02:22:42;95537.03;;;7.20;85.42
9225;BME280;4647;48.072;11.616;2023-05-09T02:25:11;95543.19;;;7.17;85.03
9225;BME280;4647;48.072;11.616;2023-05-09T02:27:44;95534.28;;;7.05;85.46
9225;BME280;4647;48.072;11.616;2023-05-09T02:30:18;95537.72;;;7.02;85.57
9225;BME280;4647;48.072;11.616;2023-05-09T02:32:51;95530.03;;;7.04;85.21
9225;BME280;4647;48.072;11.616;2023-05-09T02:35:21;95537.34;;;7.07;84.88
9225;BME280;4647;48.072;11.616;2023-05-09T02:37:50;95512.69;;;6.88;84.92
9225;BME280;4647;48.072;11.616;2023-05-09T02:40:19;95529.63;;;6.95;84.95
9225;BME280;4647;48.072;11.616;2023-05-09T02:42:49;95515.00;;;6.89;85.13
9225;BME280;4647;48.072;11.616;2023-05-09T02:45:20;95524.25;;;6.99;85.04
9225;BME280;4647;48.072;11.616;2023-05-09T02:47:48;95523.09;;;6.93;84.98
9225;BME280;4647;48.072;11.616;2023-05-09T02:50:17;95518.03;;;6.77;85.51
9225;BME280;4647;48.072;11.616;2023-05-09T02:52:48;95514.19;;;6.82;85.43
9225;BME280;4647;48.072;11.616;2023-05-09T02:55:17;95515.78;;;6.97;84.98
9225;BME280;4647;48.072;11.616;2023-05-09T02:57:45;95511.53;;;6.92;85.54
9225;BME280;4647;48.072;11.616;2023-05-09T03:00:15;95507.72;;;6.97;85.40
9225;BME280;4647;48.072;11.616;2023-05-09T03:02:48;95505.78;;;6.97;85.41
9225;BME280;4647;48.072;11.616;2023-05-09T03:05:17;95500.78;;;7.03;85.25
9225;BME280;4647;48.072;11.616;2023-05-09T03:07:45;95496.56;;;7.05;85.33
9225;BME280;4647;48.072;11.616;2023-05-09T03:10:15;95501.19;;;7.05;85.51
9225;BME280;4647;48.072;11.616;2023-05-09T03:12:44;95507.00;;;7.14;85.56
9225;BME280;4647;48.072;11.616;2023-05-09T03:15:12;95498.91;;;7.14;85.80
9225;BME280;4647;48.072;11.616;2023-05-09T03:17:41;95495.44;;;7.17;85.65
9225;BME280;4647;48.072;11.616;2023-05-09T03:20:12;95470.38;;;7.02;85.74
9225;BME280;4647;48.072;11.616;2023-05-09T03:22:41;95498.91;;;7.32;85.51
9225;BME280;4647;48.072;11.616;2023-05-09T03:25:09;95479.66;;;7.23;85.32
9225;BME280;4647;48.072;11.616;2023-05-09T03:27:38;95502.81;;;7.34;85.59
9225;BME280;4647;48.072;11.616;2023-05-09T03:30:07;95486.59;;;7.24;85.12
9225;BME280;4647;48.072;11.616;2023-05-09T03:32:36;95497.41;;;7.45;84.81
9225;BME280;4647;48.072;11.616;2023-05-09T03:35:05;95492.03;;;7.42;84.65
9225;BME280;4647;48.072;11.616;2023-05-09T03:37:36;95488.16;;;7.35;84.96
9225;BME280;4647;48.072;11.616;2023-05-09T03:40:06;95494.34;;;7.36;84.90
9225;BME280;4647;48.072;11.616;2023-05-09T03:42:35;95483.13;;;7.27;84.84
9225;BME280;4647;48.072;11.616;2023-05-09T03:45:04;95500.84;;;7.31;85.05
9225;BME280;4647;48.072;11.616;2023-05-09T03:47:32;95499.69;;;7.29;84.82
9225;BME280;4647;48.072;11.616;2023-05-09T03:50:01;95490.44;;;7.26;84.10
9225;BME280;4647;48.072;11.616;2023-05-09T03:52:30;95510.47;;;7.22;84.67
9225;BME280;4647;48.072;11.616;2023-05-09T03:55:01;95503.53;;;7.24;84.53
9225;BME280;4647;48.072;11.616;2023-05-09T03:57:30;95498.91;;;7.28;84.59
9225;BME280;4647;48.072;11.616;2023-05-09T03:59:59;95500.88;;;7.46;84.96
9225;BME280;4647;48.072;11.616;2023-05-09T04:02:29;95500.50;;;7.40;84.50
9225;BME280;4647;48.072;11.616;2023-05-09T04:04:57;95505.06;;;7.29;84.50
9225;BME280;4647;48.072;11.616;2023-05-09T04:07:26;95503.91;;;7.26;84.46
9225;BME280;4647;48.072;11.616;2023-05-09T04:09:55;95505.06;;;7.29;84.30
9225;BME280;4647;48.072;11.616;2023-05-09T04:12:26;95502.00;;;7.30;84.62
9225;BME280;4647;48.072;11.616;2023-05-09T04:14:55;95496.25;;;7.57;85.86
9225;BME280;4647;48.072;11.616;2023-05-09T04:17:23;95516.28;;;8.20;84.47
9225;BME280;4647;48.072;11.616;2023-05-09T04:19:51;95513.50;;;8.66;81.28
9225;BME280;4647;48.072;11.616;2023-05-09T04:22:20;95511.44;;;8.95;77.46
9225;BME280;4647;48.072;11.616;2023-05-09T04:24:49;95492.25;;;9.48;75.26
9225;BME280;4647;48.072;11.616;2023-05-09T04:27:17;95514.50;;;10.22;74.82
9225;BME280;4647;48.072;11.616;2023-05-09T04:29:48;95507.06;;;10.67;71.60
9225;BME280;4647;48.072;11.616;2023-05-09T04:32:18;95511.59;;;11.08;69.11
9225;BME280;4647;48.072;11.616;2023-05-09T04:34:47;95509.69;;;11.62;67.89
9225;BME280;4647;48.072;11.616;2023-05-09T04:37:16;95516.59;;;11.40;67.02
9225;BME280;4647;48.072;11.616;2023-05-09T04:39:44;95507.16;;;11.21;67.10
9225;BME280;4647;48.072;11.616;2023-05-09T04:42:13;95514.09;;;10.95;68.35
9225;BME280;4647;48.072;11.616;2023-05-09T04:44:41;95513.53;;;11.38;67.14
9225;BME280;4647;48.072;11.616;2023-05-09T04:47:13;95508.94;;;11.89;65.47
9225;BME280;4647;48.072;11.616;2023-05-09T04:49:41;95498.50;;;12.54;63.46
9225;BME280;4647;48.072;11.616;2023-05-09T04:52:09;95489.22;;;12.51;61.83
9225;BME280;4647;48.072;11.616;2023-05-09T04:54:38;95490.56;;;12.83;62.06
9225;BME280;4647;48.072;11.616;2023-05-09T04:57:06;95494.13;;;12.80;61.09
9225;BME280;4647;48.072;11.616;2023-05-09T04:59:35;95495.84;;;13.10;61.05
9225;BME280;4647;48.072;11.616;2023-05-09T05:02:04;95480.38;;;13.27;59.26
9225;BME280;4647;48.072;11.616;2023-05-09T05:04:35;95501.72;;;13.97;57.62
9225;BME280;4647;48.072;11.616;2023-05-09T05:07:03;95503.16;;;13.85;57.26
9225;BME280;4647;48.072;11.616;2023-05-09T05:09:34;95492.03;;;13.79;57.69
9225;BME280;4647;48.072;11.616;2023-05-09T05:12:02;95497.97;;;14.23;55.99
9225;BME280;4647;48.072;11.616;2023-05-09T05:14:33;95498.59;;;13.98;57.01
9225;BME280;4647;48.072;11.616;2023-05-09T05:17:01;95495.97;;;14.40;56.01
9225;BME280;4647;48.072;11.616;2023-05-09T05:19:30;95490.56;;;14.69;55.28
9225;BME280;4647;48.072;11.616;2023-05-09T05:22:01;95495.38;;;14.32;56.00
9225;BME280;4647;48.072;11.616;2023-05-09T05:24:30;95491.19;;;14.60;55.14
9225;BME280;4647;48.072;11.616;2023-05-09T05:26:58;95483.53;;;14.55;55.16
9225;BME280;4647;48.072;11.616;2023-05-09T05:29:27;95474.34;;;14.49;54.73
9225;BME280;4647;48.072;11.616;2023-05-09T05:31:55;95484.38;;;14.36;55.13
9225;BME280;4647;48.072;11.616;2023-05-09T05:34:24;95481.72;;;14.20;55.40
9225;BME280;4647;48.072;11.616;2023-05-09T05:36:52;95487.41;;;14.09;55.76
9225;BME280;4647;48.072;11.616;2023-05-09T05:39:23;95478.81;;;13.78;56.72
9225;BME280;4647;48.072;11.616;2023-05-09T05:41:52;95493.28;;;13.03;59.18
9225;BME280;4647;48.072;11.616;2023-05-09T05:44:20;95489.63;;;12.50;61.55
9225;BME280;4647;48.072;11.616;2023-05-09T05:46:49;95492.28;;;12.34;62.03
9225;BME280;4647;48.072;11.616;2023-05-09T05:49:17;95491.06;;;11.91;63.60
9225;BME280;4647;48.072;11.616;2023-05-09T05:51:45;95485.56;;;11.95;63.67
9225;BME280;4647;48.072;11.616;2023-05-09T05:54:14;95483.63;;;11.68;64.06
9225;BME280;4647;48.072;11.616;2023-05-09T05:56:45;95467.13;;;12.06;63.27
9225;BME280;4647;48.072;11.616;2023-05-09T05:59:13;95463.34;;;12.23;62.92
9225;BME280;4647;48.072;11.616;2023-05-09T06:01:42;95475.00;;;12.44;62.63
9225;BME280;4647;48.072;11.616;2023-05-09T06:04:10;95474.41;;;12.13;63.10
9225;BME280;4647;48.072;11.616;2023-05-09T06:06:39;95472.28;;;12.44;62.52
9225;BME280;4647;48.072;11.616;2023-05-09T06:09:08;95469.25;;;12.62;61.51
9225;BME280;4647;48.072;11.616;2023-05-09T06:11:36;95468.13;;;12.59;61.83
9225;BME280;4647;48.072;11.616;2023-05-09T06:14:07;95467.78;;;12.57;61.46
9225;BME280;4647;48.072;11.616;2023-05-09T06:16:36;95459.66;;;12.93;61.11
9225;BME280;4647;48.072;11.616;2023-05-09T06:19:04;95454.22;;;12.93;60.34
9225;BME280;4647;48.072;11.616;2023-05-09T06:21:32;95461.00;;;13.41;59.56
9225;BME280;4647;48.072;11.616;2023-05-09T06:24:01;95464.44;;;13.61;59.46
9225;BME280;4647;48.072;11.616;2023-05-09T06:26:29;95457.53;;;13.89;58.90
9225;BME280;4647;48.072;11.616;2023-05-09T06:28:58;95453.19;;;14.08;57.74
9225;BME280;4647;48.072;11.616;2023-05-09T06:31:29;95449.00;;;14.20;58.68
9225;BME280;4647;48.072;11.616;2023-05-09T06:34:02;95446.75;;;14.47;57.64
9225;BME280;4647;48.072;11.616;2023-05-09T06:36:31;95451.63;;;14.68;56.78
9225;BME280;4647;48.072;11.616;2023-05-09T06:39:00;95454.75;;;14.38;58.06
9225;BME280;4647;48.072;11.616;2023-05-09T06:41:28;95446.75;;;14.89;56.67
9225;BME280;4647;48.072;11.616;2023-05-09T06:43:57;95442.34;;;15.46;55.99
9225;BME280;4647;48.072;11.616;2023-05-09T06:46:29;95448.88;;;15.35;56.18
9225;BME280;4647;48.072;11.616;2023-05-09T06:48:57;95441.25;;;15.56;54.95
9225;BME280;4647;48.072;11.616;2023-05-09T06:51:26;95431.31;;;15.49;55.69
9225;BME280;4647;48.072;11.616;2023-05-09T06:53:55;95437.53;;;15.50;56.05
9225;BME280;4647;48.072;11.616;2023-05-09T06:56:23;95426.16;;;15.13;58.15
9225;BME280;4647;48.072;11.616;2023-05-09T06:58:52;95440.31;;;15.62;55.92
9225;BME280;4647;48.072;11.616;2023-05-09T07:01:20;95432.28;;;15.93;55.42
9225;BME280;4647;48.072;11.616;2023-05-09T07:03:52;95407.63;;;15.46;56.39
9225;BME280;4647;48.072;11.616;2023-05-09T07:06:21;95417.34;;;15.85;55.85
9225;BME280;4647;48.072;11.616;2023-05-09T07:08:49;95434.38;;;15.89;56.00
9225;BME280;4647;48.072;11.616;2023-05-09T07:11:17;95427.66;;;16.03;55.57
9225;BME280;4647;48.072;11.616;2023-05-09T07:13:46;95432.28;;;15.93;56.52
9225;BME280;4647;48.072;11.616;2023-05-09T07:16:15;95434.75;;;16.01;55.90
9225;BME280;4647;48.072;11.616;2023-05-09T07:18:47;95430.34;;;15.69;56.85
9225;BME280;4647;48.072;11.616;2023-05-09T07:21:18;95417.69;;;15.62;57.05
9225;BME280;4647;48.072;11.616;2023-05-09T07:23:46;95422.44;;;15.83;57.13
9225;BME280;4647;48.072;11.616;2023-05-09T07:26:15;95416.13;;;15.86;57.08
9225;BME280;4647;48.072;11.616;2023-05-09T07:28:44;95411.88;;;16.20;56.86
9225;BME280;4647;48.072;11.616;2023-05-09T07:31:12;95403.63;;;15.98;55.37
9225;BME280;4647;48.072;11.616;2023-05-09T07:33:41;95389.84;;;16.02;55.66
9225;BME280;4647;48.072;11.616;2023-05-09T07:36:09;95399.16;;;16.26;55.67
9225;BME280;4647;48.072;11.616;2023-05-09T07:38:43;95385.16;;;16.24;55.94
9225;BME280;4647;48.072;11.616;2023-05-09T07:41:12;95408.69;;;16.21;55.93
9225;BME280;4647;48.072;11.616;2023-05-09T07:43:40;95394.75;;;16.28;55.97
9225;BME280;4647;48.072;11.616;2023-05-09T07:46:09;95385.00;;;16.40;55.84
9225;BME280;4647;48.072;11.616;2023-05-09T07:48:38;95381.22;;;16.25;56.46
9225;BME280;4647;48.072;11.616;2023-05-09T07:51:08;95385.03;;;16.27;57.44
9225;BME280;4647;48.072;11.616;2023-05-09T07:53:38;95390.69;;;16.55;56.52
9225;BME280;4647;48.072;11.616;2023-05-09T07:56:09;95382.06;;;16.78;56.00
9225;BME280;4647;48.072;11.616;2023-05-09T07:58:38;95381.19;;;17.12;55.86
9225;BME280;4647;48.072;11.616;2023-05-09T08:01:06;95372.22;;;17.61;53.67
9225;BME280;4647;48.072;11.616;2023-05-09T08:03:35;95390.50;;;17.64;52.99
9225;BME280;4647;48.072;11.616;2023-05-09T08:06:04;95381.97;;;17.62;53.08
9225;BME280;4647;48.072;11.616;2023-05-09T08:08:32;95372.00;;;17.96;53.21
9225;BME280;4647;48.072;11.616;2023-05-09T08:11:01;95371.41;;;18.01;53.34
9225;BME280;4647;48.072;11.616;2023-05-09T08:13:32;95360.72;;;18.76;51.44
9225;BME280;4647;48.072;11.616;2023-05-09T08:16:00;95361.94;;;18.75;49.98
9225;BME280;4647;48.072;11.616;2023-05-09T08:18:29;95351.13;;;18.44;51.46
9225;BME280;4647;48.072;11.616;2023-05-09T08:20:57;95360.13;;;18.08;52.35
9225;BME280;4647;48.072;11.616;2023-05-09T08:23:25;95353.72;;;18.48;51.65
9225;BME280;4647;48.072;11.616;2023-05-09T08:25:55;95352.78;;;18.69;50.88
9225;BME280;4647;48.072;11.616;2023-05-09T08:28:23;95353.09;;;18.62;51.85
9225;BME280;4647;48.072;11.616;2023-05-09T08:30:55;95348.81;;;18.61;52.73
9225;BME280;4647;48.072;11.616;2023-05-09T08:33:24;95341.41;;;18.25;53.35
9225;BME280;4647;48.072;11.616;2023-05-09T08:35:53;95342.00;;;18.38;53.16
9225;BME280;4647;48.072;11.616;2023-05-09T08:38:22;95335.16;;;18.24;53.05
9225;BME280;4647;48.072;11.616;2023-05-09T08:40:51;95349.00;;;18.12;53.36
9225;BME280;4647;48.072;11.616;2023-05-09T08:43:20;95350.09;;;18.14;54.09
9225;BME280;4647;48.072;11.616;2023-05-09T08:45:52;95327.97;;;18.18;53.16
9225;BME280;4647;48.072;11.616;2023-05-09T08:48:25;95316.88;;;18.30;52.42
9225;BME280;4647;48.072;11.616;2023-05-09T08:50:55;95328.75;;;17.91;54.10
9225;BME280;4647;48.072;11.616;2023-05-09T08:53:28;95324.50;;;17.99;53.23
9225;BME280;4647;48.072;11.616;2023-05-09T08:55:57;95320.00;;;18.65;52.31
9225;BME280;4647;48.072;11.616;2023-05-09T08:58:26;95320.84;;;18.11;53.83
9225;BME280;4647;48.072;11.616;2023-05-09T09:00:55;95312.75;;;18.17;54.13
9225;BME280;4647;48.072;11.616;2023-05-09T09:03:26;95308.03;;;18.17;53.04
9225;BME280;4647;48.072;11.616;2023-05-09T09:05:55;95301.31;;;18.36;53.15
9225;BME280;4647;48.072;11.616;2023-05-09T09:08:26;95298.88;;;18.38;53.22
9225;BME280;4647;48.072;11.616;2023-05-09T09:10:55;95301.31;;;18.46;51.95
9225;BME280;4647;48.072;11.616;2023-05-09T09:13:24;95287.25;;;18.71;51.85
9225;BME280;4647;48.072;11.616;2023-05-09T09:15:53;95291.13;;;18.28;52.75
9225;BME280;4647;48.072;11.616;2023-05-09T09:18:29;95288.38;;;18.19;53.41
9225;BME280;4647;48.072;11.616;2023-05-09T09:21:03;95283.47;;;18.50;53.24
9225;BME280;4647;48.072;11.616;2023-05-09T09:23:33;95284.66;;;18.58;52.72
9225;BME280;4647;48.072;11.616;2023-05-09T09:26:02;95293.56;;;18.95;51.23
9225;BME280;4647;48.072;11.616;2023-05-09T09:28:31;95282.28;;;18.93;51.94
9225;BME280;4647;48.072;11.616;2023-05-09T09:31:00;95271.38;;;19.32;51.01
9225;BME280;4647;48.072;11.616;2023-05-09T09:33:31;95275.03;;;19.62;50.07
9225;BME280;4647;48.072;11.616;2023-05-09T09:35:59;95263.53;;;19.73;48.89
9225;BME280;4647;48.072;11.616;2023-05-09T09:38:28;95263.03;;;19.26;50.46
9225;BME280;4647;48.072;11.616;2023-05-09T09:41:08;95258.53;;;18.81;51.59
9225;BME280;4647;48.072;11.616;2023-05-09T09:43:36;95246.16;;;19.19;50.29
9225;BME280;4647;48.072;11.616;2023-05-09T09:46:05;95248.84;;;19.28;50.32
9225;BME280;4647;48.072;11.616;2023-05-09T09:48:36;95242.31;;;19.16;50.22
9225;BME280;4647;48.072;11.616;2023-05-09T09:51:08;95247.53;;;18.81;50.89
9225;BME280;4647;48.072;11.616;2023-05-09T09:53:40;95240.78;;;19.24;50.05
9225;BME280;4647;48.072;11.616;2023-05-09T09:56:09;95245.97;;;19.22;50.87
9225;BME280;4647;48.072;11.616;2023-05-09T09:58:38;95233.66;;;19.18;50.42
9225;BME280;4647;48.072;11.616;2023-05-09T10:01:07;95231.66;;;18.85;51.53
9225;BME280;4647;48.072;11.616;2023-05-09T10:03:42;95230.56;;;18.92;50.97
9225;BME280;4647;48.072;11.616;2023-05-09T10:06:11;95213.00;;;19.22;50.81
9225;BME280;4647;48.072;11.616;2023-05-09T10:08:41;95216.94;;;19.54;50.99
9225;BME280;4647;48.072;11.616;2023-05-09T10:11:11;95209.50;;;19.70;50.04
9225;BME280;4647;48.072;11.616;2023-05-09T10:13:40;95206.25;;;19.71;49.65
9225;BME280;4647;48.072;11.616;2023-05-09T10:16:08;95206.28;;;19.47;50.37
9225;BME280;4647;48.072;11.616;2023-05-09T10:18:41;95203.81;;;19.49;49.82
9225;BME280;4647;48.072;11.616;2023-05-09T10:21:10;95195.50;;;19.58;49.72
9225;BME280;4647;48.072;11.616;2023-05-09T10:23:44;95193.72;;;19.55;50.38
9225;BME280;4647;48.072;11.616;2023-05-09T10:26:17;95176.47;;;19.55;49.24
9225;BME280;4647;48.072;11.616;2023-05-09T10:28:54;95195.28;;;19.71;48.66
9225;BME280;4647;48.072;11.616;2023-05-09T10:31:25;95177.38;;;20.05;47.59
9225;BME280;4647;48.072;11.616;2023-05-09T10:34:00;95186.94;;;20.10;48.46
9225;BME280;4647;48.072;11.616;2023-05-09T10:36:32;95174.13;;;19.77;49.30
9225;BME280;4647;48.072;11.616;2023-05-09T10:39:01;95175.66;;;19.78;49.55
9225;BME280;4647;48.072;11.616;2023-05-09T10:41:30;95176.88;;;19.77;50.06
9225;BME280;4647;48.072;11.616;2023-05-09T10:43:59;95169.09;;;19.76;49.30
9225;BME280;4647;48.072;11.616;2023-05-09T10:46:28;95160.41;;;20.21;48.09
9225;BME280;4647;48.072;11.616;2023-05-09T10:48:59;95159.34;;;20.48;47.12
9225;BME280;4647;48.072;11.616;2023-05-09T10:51:28;95154.41;;;19.64;49.58
9225;BME280;4647;48.072;11.616;2023-05-09T10:53:57;95160.78;;;20.00;49.10
9225;BME280;4647;48.072;11.616;2023-05-09T10:56:28;95153.66;;;20.22;48.44
9225;BME280;4647;48.072;11.616;2023-05-09T10:58:57;95143.13;;;20.36;47.58
9225;BME280;4647;48.072;11.616;2023-05-09T11:01:30;95133.75;;;20.42;47.80
9225;BME280;4647;48.072;11.616;2023-05-09T11:04:08;95134.28;;;20.46;47.93
9225;BME280;4647;48.072;11.616;2023-05-09T11:06:46;95131.78;;;20.63;47.20
9225;BME280;4647;48.072;11.616;2023-05-09T11:09:25;95123.81;;;20.65;47.93
9225;BME280;4647;48.072;11.616;2023-05-09T11:11:59;95115.69;;;20.76;47.62
9225;BME280;4647;48.072;11.616;2023-05-09T11:14:30;95090.78;;;20.65;47.93
9225;BME280;4647;48.072;11.616;2023-05-09T11:16:59;95092.44;;;20.77;46.11
9225;BME280;4647;48.072;11.616;2023-05-09T11:22:23;95093.19;;;21.19;45.74
9225;BME280;4647;48.072;11.616;2023-05-09T11:25:00;95093.47;;;20.80;46.57
9225;BME280;4647;48.072;11.616;2023-05-09T11:27:38;95082.28;;;20.34;47.81
9225;BME280;4647;48.072;11.616;2023-05-09T11:30:08;95051.19;;;20.28;47.90
9225;BME280;4647;48.072;11.616;2023-05-09T11:32:43;95084.72;;;21.02;46.56
9225;BME280;4647;48.072;11.616;2023-05-09T11:35:16;95054.56;;;21.13;45.47
9225;BME280;4647;48.072;11.616;2023-05-09T11:37:47;95047.28;;;21.10;46.49
9225;BME280;4647;48.072;11.616;2023-05-09T11:40:18;95064.13;;;21.38;45.19
9225;BME280;4647;48.072;11.616;2023-05-09T11:42:49;95070.94;;;21.42;44.48
9225;BME280;4647;48.072;11.616;2023-05-09T11:45:19;95055.16;;;21.43;45.33
9225;BME280;4647;48.072;11.616;2023-05-09T11:47:48;95010.97;;;21.11;44.78
9225;BME280;4647;48.072;11.616;2023-05-09T11:50:20;95055.41;;;21.45;45.16
9225;BME280;4647;48.072;11.616;2023-05-09T11:52:49;95050.56;;;21.92;43.21
9225;BME280;4647;48.072;11.616;2023-05-09T11:55:19;95040.25;;;20.89;45.64
9225;BME280;4647;48.072;11.616;2023-05-09T11:57:50;95044.16;;;21.02;45.89
9225;BME280;4647;48.072;11.616;2023-05-09T12:00:21;95053.22;;;21.29;46.63
9225;BME280;4647;48.072;11.616;2023-05-09T12:02:50;95041.47;;;21.28;45.20
9225;BME280;4647;48.072;11.616;2023-05-09T12:05:22;95038.19;;;20.83;47.04
9225;BME280;4647;48.072;11.616;2023-05-09T12:07:50;95040.09;;;21.18;45.93
9225;BME280;4647;48.072;11.616;2023-05-09T12:10:21;95035.38;;;21.44;45.71
9225;BME280;4647;48.072;11.616;2023-05-09T12:12:50;95024.28;;;20.93;46.45
9225;BME280;4647;48.072;11.616;2023-05-09T12:15:20;95017.75;;;21.62;46.27
9225;BME280;4647;48.072;11.616;2023-05-09T12:18:00;95010.53;;;21.70;45.42
9225;BME280;4647;48.072;11.616;2023-05-09T12:20:48;95013.81;;;21.74;44.56
9225;BME280;4647;48.072;11.616;2023-05-09T12:23:17;95012.00;;;21.66;44.68
9225;BME280;4647;48.072;11.616;2023-05-09T12:25:47;95004.44;;;21.92;44.53
9225;BME280;4647;48.072;11.616;2023-05-09T12:28:16;95001.06;;;21.77;45.14
9225;BME280;4647;48.072;11.616;2023-05-09T12:30:45;94993.47;;;21.40;44.80
9225;BME280;4647;48.072;11.616;2023-05-09T12:33:14;94990.16;;;20.84;45.85
9225;BME280;4647;48.072;11.616;2023-05-09T12:35:44;94982.88;;;21.59;45.48
9225;BME280;4647;48.072;11.616;2023-05-09T12:38:19;94987.50;;;22.53;43.63
9225;BME280;4647;48.072;11.616;2023-05-09T12:40:59;94969.13;;;22.99;41.74
9225;BME280;4647;48.072;11.616;2023-05-09T12:43:29;94971.00;;;22.70;43.12
9225;BME280;4647;48.072;11.616;2023-05-09T12:45:58;94954.78;;;21.92;43.94
9225;BME280;4647;48.072;11.616;2023-05-09T12:48:29;94966.34;;;22.33;43.94
9225;BME280;4647;48.072;11.616;2023-05-09T12:51:01;94961.72;;;22.19;43.49
9225;BME280;4647;48.072;11.616;2023-05-09T12:53:37;94954.97;;;22.20;44.23
9225;BME280;4647;48.072;11.616;2023-05-09T12:56:13;94953.34;;;22.02;43.32
9225;BME280;4647;48.072;11.616;2023-05-09T12:58:49;94947.69;;;22.23;43.70
9225;BME280;4647;48.072;11.616;2023-05-09T13:01:18;94958.53;;;21.89;44.86
9225;BME280;4647;48.072;11.616;2023-05-09T13:03:50;94937.13;;;21.41;45.22
9225;BME280;4647;48.072;11.616;2023-05-09T13:06:19;94938.59;;;22.05;44.02
9225;BME280;4647;48.072;11.616;2023-05-09T13:08:59;94937.69;;;21.51;45.51
9225;BME280;4647;48.072;11.616;2023-05-09T13:11:30;94926.19;;;21.01;45.04
9225;BME280;4647;48.072;11.616;2023-05-09T13:13:58;94926.94;;;21.90;43.21
9225;BME280;4647;48.072;11.616;2023-05-09T13:16:27;94931.06;;;22.60;41.81
9225;BME280;4647;48.072;11.616;2023-05-09T13:18:56;94919.75;;;22.63;41.99
9225;BME280;4647;48.072;11.616;2023-05-09T13:21:25;94919.63;;;22.95;39.99
9225;BME280;4647;48.072;11.616;2023-05-09T13:23:54;94912.28;;;22.81;39.18
9225;BME280;4647;48.072;11.616;2023-05-09T13:26:25;94908.84;;;23.03;39.59
9225;BME280;4647;48.072;11.616;2023-05-09T13:28:54;94896.28;;;23.07;38.10
9225;BME280;4647;48.072;11.616;2023-05-09T13:31:23;94901.31;;;23.09;40.30
9225;BME280;4647;48.072;11.616;2023-05-09T13:33:51;94899.50;;;22.83;40.08